EXS15L EGKK-LPMA
Flight info
| Callsign | EXS15L |
|---|---|
| Flight time | N/A |
| Altitude | 34000 |
| Route | IMVUR N63 SAM M195 LORKU DCT POZOF DCT LOTEE DCT PINEK DCT VERAM DCT TELMU DCT PECKY DCT LIDRO |
| Aircraft | B738/M-SDE2E3FGHIRWXY/LB1 |
Departure
| Time | 2026-05-04 11:19 |
|---|---|
| Airport | London Gatwick Airport (EGKK) |
Arrival
| Time | N/A |
|---|---|
| Airport | Cristiano Ronaldo International Airport (LPMA) |
| Time | Latitude | Longitude | Altitude | Speed | Heading |
|---|---|---|---|---|---|
| 2026-05-04 10:42 | 51.15508 | -0.16779 | 203 ft | 0 kts | 348° |
| 2026-05-04 10:58 | 51.15504 | -0.16778 | 203 ft | 3 kts | 349° |
| 2026-05-04 10:58 | 51.15481 | -0.16771 | 207 ft | 4 kts | 342° |
| 2026-05-04 10:58 | 51.15457 | -0.16753 | 216 ft | 4 kts | 324° |
| 2026-05-04 10:59 | 51.15438 | -0.16724 | 206 ft | 4 kts | 303° |
| 2026-05-04 10:59 | 51.15434 | -0.16712 | 212 ft | 0 kts | 301° |
| 2026-05-04 11:05 | 51.15380 | -0.17219 | 212 ft | 0 kts | 252° |
| 2026-05-04 11:06 | 51.15380 | -0.17220 | 212 ft | 1 kts | 252° |
| 2026-05-04 11:08 | 51.15153 | -0.17890 | 205 ft | 25 kts | 258° |
| 2026-05-04 11:10 | 51.14941 | -0.19425 | 215 ft | 13 kts | 257° |
| 2026-05-04 11:12 | 51.14765 | -0.20708 | 203 ft | 11 kts | 257° |
| 2026-05-04 11:12 | 51.14750 | -0.20820 | 211 ft | 10 kts | 258° |
| 2026-05-04 11:12 | 51.14735 | -0.20929 | 208 ft | 10 kts | 258° |
| 2026-05-04 11:12 | 51.14723 | -0.21014 | 210 ft | 0 kts | 257° |
| 2026-05-04 11:13 | 51.14723 | -0.21018 | 209 ft | 1 kts | 257° |
| 2026-05-04 11:13 | 51.14716 | -0.21065 | 204 ft | 7 kts | 257° |
| 2026-05-04 11:13 | 51.14705 | -0.21148 | 204 ft | 8 kts | 257° |
| 2026-05-04 11:14 | 51.14701 | -0.21174 | 205 ft | 3 kts | 257° |
| 2026-05-04 11:14 | 51.14699 | -0.21193 | 205 ft | 0 kts | 258° |
| 2026-05-04 11:16 | 51.14524 | -0.21222 | 206 ft | 8 kts | 111° |
| 2026-05-04 11:16 | 51.14524 | -0.21133 | 209 ft | 0 kts | 76° |
| 2026-05-04 11:17 | 51.14534 | -0.21068 | 205 ft | 26 kts | 76° |
| 2026-05-04 11:17 | 51.14630 | -0.20371 | 210 ft | 101 kts | 77° |
| 2026-05-04 11:19 | 51.17357 | -0.06495 | 2890 ft | 229 kts | 30° |
| 2026-05-04 11:19 | 51.18794 | -0.05397 | 2943 ft | 230 kts | 16° |
| 2026-05-04 11:19 | 51.20385 | -0.05146 | 2714 ft | 236 kts | 349° |
| 2026-05-04 11:19 | 51.21748 | -0.06348 | 2757 ft | 220 kts | 310° |
| 2026-05-04 11:20 | 51.22500 | -0.08450 | 2839 ft | 224 kts | 287° |
| 2026-05-04 11:20 | 51.22668 | -0.11022 | 3063 ft | 246 kts | 265° |
| 2026-05-04 11:20 | 51.22430 | -0.13609 | 3517 ft | 258 kts | 259° |
| 2026-05-04 11:20 | 51.22079 | -0.16444 | 4269 ft | 263 kts | 259° |
| 2026-05-04 11:22 | 51.20052 | -0.33361 | 7712 ft | 277 kts | 259° |
| 2026-05-04 11:22 | 51.19683 | -0.36377 | 8203 ft | 278 kts | 258° |
| 2026-05-04 11:23 | 51.19287 | -0.39406 | 8815 ft | 281 kts | 258° |
| 2026-05-04 11:23 | 51.18882 | -0.42481 | 9499 ft | 285 kts | 258° |
| 2026-05-04 11:24 | 51.15369 | -0.61615 | 12381 ft | 343 kts | 246° |
| 2026-05-04 11:25 | 51.14292 | -0.65067 | 12617 ft | 359 kts | 239° |
| 2026-05-04 11:25 | 51.13241 | -0.68695 | 13090 ft | 366 kts | 256° |
| 2026-05-04 11:25 | 51.13048 | -0.72737 | 13716 ft | 369 kts | 277° |
| 2026-05-04 11:26 | 51.14280 | -0.80659 | 14942 ft | 373 kts | 269° |
| 2026-05-04 11:27 | 51.05685 | -1.06903 | 18263 ft | 394 kts | 240° |
| 2026-05-04 11:28 | 51.04310 | -1.10667 | 18828 ft | 396 kts | 240° |
| 2026-05-04 11:28 | 51.02914 | -1.14473 | 19314 ft | 399 kts | 240° |
| 2026-05-04 11:28 | 51.01520 | -1.18264 | 20080 ft | 392 kts | 240° |
| 2026-05-04 11:28 | 51.00166 | -1.21942 | 21061 ft | 381 kts | 240° |
| 2026-05-04 11:29 | 50.98833 | -1.25555 | 21719 ft | 379 kts | 240° |
| 2026-05-04 11:29 | 50.97490 | -1.29191 | 22132 ft | 384 kts | 240° |
| 2026-05-04 11:29 | 50.96006 | -1.32738 | 22505 ft | 388 kts | 231° |
| 2026-05-04 11:29 | 50.94143 | -1.35849 | 22944 ft | 390 kts | 221° |
| 2026-05-04 11:31 | 50.77959 | -1.52762 | 25676 ft | 408 kts | 213° |
| 2026-05-04 11:33 | 50.61036 | -1.70210 | 27971 ft | 422 kts | 213° |
| 2026-05-04 11:33 | 50.58567 | -1.72744 | 28265 ft | 424 kts | 213° |
| 2026-05-04 11:33 | 50.56083 | -1.75290 | 28553 ft | 426 kts | 213° |
| 2026-05-04 11:34 | 50.53594 | -1.77837 | 28826 ft | 428 kts | 213° |
| 2026-05-04 11:34 | 50.51164 | -1.80319 | 29095 ft | 430 kts | 213° |
| 2026-05-04 11:34 | 50.48653 | -1.82879 | 29360 ft | 432 kts | 213° |
| 2026-05-04 11:34 | 50.46128 | -1.85451 | 29618 ft | 434 kts | 213° |
| 2026-05-04 11:35 | 50.43590 | -1.88033 | 29870 ft | 435 kts | 213° |
| 2026-05-04 11:35 | 50.41039 | -1.90625 | 30119 ft | 437 kts | 213° |
| 2026-05-04 11:35 | 50.38484 | -1.93219 | 30349 ft | 439 kts | 213° |
| 2026-05-04 11:35 | 50.35913 | -1.95826 | 30575 ft | 440 kts | 213° |
| 2026-05-04 11:36 | 50.33335 | -1.98437 | 30807 ft | 442 kts | 213° |
| 2026-05-04 11:36 | 50.30752 | -2.01050 | 31022 ft | 443 kts | 213° |
| 2026-05-04 11:36 | 50.28145 | -2.03684 | 31235 ft | 445 kts | 213° |
| 2026-05-04 11:36 | 50.25541 | -2.06310 | 31446 ft | 446 kts | 213° |
| 2026-05-04 11:37 | 50.22915 | -2.08937 | 31641 ft | 448 kts | 212° |
| 2026-05-04 11:37 | 50.20271 | -2.11526 | 31837 ft | 449 kts | 212° |
| 2026-05-04 11:37 | 50.18511 | -2.13234 | 31963 ft | 450 kts | 212° |
| 2026-05-04 11:37 | 50.14943 | -2.16686 | 32216 ft | 452 kts | 212° |
| 2026-05-04 11:38 | 50.12269 | -2.19274 | 32393 ft | 453 kts | 212° |
| 2026-05-04 11:38 | 50.09582 | -2.21877 | 32580 ft | 454 kts | 212° |
| 2026-05-04 11:38 | 50.07806 | -2.23598 | 32733 ft | 454 kts | 212° |
| 2026-05-04 11:38 | 50.05132 | -2.26189 | 33004 ft | 453 kts | 212° |
| 2026-05-04 11:39 | 50.02460 | -2.28775 | 33266 ft | 451 kts | 212° |
| 2026-05-04 11:39 | 49.99793 | -2.31355 | 33476 ft | 451 kts | 212° |
| 2026-05-04 11:40 | 49.83107 | -2.44739 | 34690 ft | 449 kts | 204° |
| 2026-05-04 11:41 | 49.80243 | -2.46674 | 34887 ft | 449 kts | 204° |
| 2026-05-04 11:41 | 49.77422 | -2.48595 | 35003 ft | 450 kts | 204° |
| 2026-05-04 11:41 | 49.74550 | -2.50567 | 34998 ft | 451 kts | 204° |
| 2026-05-04 11:42 | 49.68836 | -2.54518 | 34983 ft | 448 kts | 204° |
| 2026-05-04 11:42 | 49.63180 | -2.58436 | 35000 ft | 444 kts | 204° |
| 2026-05-04 11:43 | 49.57559 | -2.62322 | 34999 ft | 442 kts | 204° |
| 2026-05-04 11:43 | 49.51952 | -2.66186 | 35002 ft | 441 kts | 204° |
| 2026-05-04 11:44 | 49.46357 | -2.70031 | 35000 ft | 441 kts | 204° |
| 2026-05-04 11:44 | 49.40742 | -2.73881 | 35006 ft | 442 kts | 204° |
| 2026-05-04 11:45 | 49.35107 | -2.77734 | 35004 ft | 444 kts | 204° |
| 2026-05-04 11:45 | 49.29451 | -2.81592 | 35005 ft | 446 kts | 204° |
| 2026-05-04 11:46 | 49.23772 | -2.85455 | 35001 ft | 448 kts | 204° |
| 2026-05-04 11:46 | 49.18070 | -2.89325 | 34999 ft | 449 kts | 204° |
| 2026-05-04 11:47 | 49.12355 | -2.93194 | 35003 ft | 450 kts | 204° |
| 2026-05-04 11:47 | 49.06625 | -2.97062 | 34998 ft | 450 kts | 204° |
| 2026-05-04 11:48 | 49.00894 | -3.00922 | 34995 ft | 450 kts | 204° |
| 2026-05-04 11:48 | 48.95170 | -3.04768 | 35000 ft | 449 kts | 204° |
| 2026-05-04 11:49 | 48.89451 | -3.08600 | 34998 ft | 448 kts | 204° |
| 2026-05-04 11:49 | 48.83749 | -3.12411 | 35002 ft | 447 kts | 204° |
| 2026-05-04 11:50 | 48.78051 | -3.16210 | 34999 ft | 447 kts | 204° |
| 2026-05-04 11:50 | 48.72368 | -3.19990 | 35004 ft | 446 kts | 204° |
| 2026-05-04 11:51 | 48.66690 | -3.23757 | 35003 ft | 445 kts | 204° |
| 2026-05-04 11:51 | 48.61009 | -3.27517 | 35002 ft | 445 kts | 204° |
| 2026-05-04 11:52 | 48.55335 | -3.31263 | 35001 ft | 445 kts | 204° |
| 2026-05-04 11:52 | 48.49659 | -3.35001 | 35000 ft | 445 kts | 204° |
| 2026-05-04 11:53 | 48.43977 | -3.38735 | 35002 ft | 446 kts | 204° |
| 2026-05-04 11:53 | 48.38286 | -3.42464 | 35000 ft | 446 kts | 204° |
| 2026-05-04 11:55 | 48.15416 | -3.57361 | 35002 ft | 449 kts | 204° |
| 2026-05-04 11:56 | 48.09688 | -3.61069 | 35000 ft | 449 kts | 204° |
| 2026-05-04 11:56 | 48.03985 | -3.64752 | 35004 ft | 449 kts | 204° |
| 2026-05-04 11:57 | 47.98243 | -3.68451 | 34999 ft | 449 kts | 204° |
| 2026-05-04 11:57 | 47.92511 | -3.72135 | 35005 ft | 449 kts | 203° |
| 2026-05-04 11:58 | 47.86777 | -3.75811 | 34995 ft | 448 kts | 203° |
| 2026-05-04 11:58 | 47.81050 | -3.79474 | 35000 ft | 448 kts | 203° |
| 2026-05-04 11:59 | 47.75333 | -3.83122 | 34993 ft | 447 kts | 203° |
| 2026-05-04 11:59 | 47.69622 | -3.86757 | 35000 ft | 446 kts | 203° |
| 2026-05-04 12:00 | 47.63921 | -3.90377 | 35002 ft | 445 kts | 203° |
| 2026-05-04 12:00 | 47.58224 | -3.93987 | 35002 ft | 445 kts | 203° |
| 2026-05-04 12:01 | 47.52534 | -3.97583 | 35001 ft | 444 kts | 203° |
| 2026-05-04 12:02 | 47.32623 | -4.10100 | 34999 ft | 445 kts | 203° |
| 2026-05-04 12:03 | 47.26925 | -4.13664 | 35004 ft | 445 kts | 203° |
| 2026-05-04 12:03 | 47.21212 | -4.17228 | 35005 ft | 446 kts | 203° |
| 2026-05-04 12:04 | 47.15502 | -4.20783 | 35001 ft | 446 kts | 203° |
| 2026-05-04 12:04 | 47.09783 | -4.24336 | 35000 ft | 446 kts | 203° |
| 2026-05-04 12:05 | 47.04116 | -4.27891 | 35001 ft | 447 kts | 204° |
| 2026-05-04 12:05 | 46.98481 | -4.31733 | 34997 ft | 447 kts | 205° |
| 2026-05-04 12:06 | 46.92893 | -4.35613 | 34999 ft | 447 kts | 205° |
| 2026-05-04 12:06 | 46.87260 | -4.39488 | 35003 ft | 447 kts | 205° |
| 2026-05-04 12:07 | 46.81587 | -4.43353 | 35002 ft | 447 kts | 205° |
| 2026-05-04 12:07 | 46.75943 | -4.47181 | 35003 ft | 447 kts | 205° |
| 2026-05-04 12:08 | 46.70335 | -4.50974 | 34999 ft | 447 kts | 205° |
| 2026-05-04 12:08 | 46.64698 | -4.54779 | 35000 ft | 446 kts | 205° |
| 2026-05-04 12:09 | 46.59060 | -4.58576 | 35005 ft | 446 kts | 205° |
| 2026-05-04 12:09 | 46.53416 | -4.62369 | 35005 ft | 446 kts | 205° |
| 2026-05-04 12:10 | 46.47784 | -4.66145 | 35001 ft | 446 kts | 205° |
| 2026-05-04 12:10 | 46.42152 | -4.69912 | 34998 ft | 445 kts | 205° |
| 2026-05-04 12:11 | 46.36525 | -4.73668 | 35006 ft | 445 kts | 205° |
| 2026-05-04 12:11 | 46.30891 | -4.77419 | 34999 ft | 445 kts | 205° |
| 2026-05-04 12:12 | 46.25260 | -4.81160 | 35002 ft | 445 kts | 205° |
| 2026-05-04 12:12 | 46.19665 | -4.84868 | 34998 ft | 445 kts | 205° |
| 2026-05-04 12:14 | 45.97110 | -4.99735 | 34998 ft | 446 kts | 205° |
| 2026-05-04 12:15 | 45.91467 | -5.03434 | 34998 ft | 446 kts | 205° |
| 2026-05-04 12:15 | 45.85818 | -5.07128 | 35005 ft | 446 kts | 205° |
| 2026-05-04 12:16 | 45.80164 | -5.10817 | 35000 ft | 446 kts | 205° |
| 2026-05-04 12:16 | 45.74509 | -5.14498 | 34998 ft | 446 kts | 205° |
| 2026-05-04 12:17 | 45.68855 | -5.18171 | 35003 ft | 446 kts | 205° |
| 2026-05-04 12:17 | 45.63199 | -5.21837 | 35006 ft | 446 kts | 205° |
| 2026-05-04 12:18 | 45.57544 | -5.25494 | 35006 ft | 446 kts | 204° |
| 2026-05-04 12:18 | 45.51922 | -5.29122 | 35002 ft | 446 kts | 204° |
| 2026-05-04 12:19 | 45.46265 | -5.32764 | 35003 ft | 446 kts | 204° |
| 2026-05-04 12:19 | 45.40601 | -5.36403 | 34997 ft | 446 kts | 204° |
| 2026-05-04 12:20 | 45.35863 | -5.39440 | 35000 ft | 446 kts | 204° |
| 2026-05-04 12:20 | 45.29283 | -5.43649 | 35006 ft | 446 kts | 204° |
| 2026-05-04 12:21 | 45.24543 | -5.46675 | 35005 ft | 446 kts | 204° |
| 2026-05-04 12:21 | 45.18888 | -5.50277 | 34999 ft | 446 kts | 204° |
| 2026-05-04 12:22 | 45.13266 | -5.53851 | 35000 ft | 446 kts | 204° |
| 2026-05-04 12:22 | 45.07609 | -5.57439 | 35003 ft | 446 kts | 204° |
| 2026-05-04 12:23 | 45.01961 | -5.61013 | 34997 ft | 446 kts | 204° |
| 2026-05-04 12:23 | 44.96306 | -5.64585 | 34998 ft | 446 kts | 204° |
| 2026-05-04 12:24 | 44.90644 | -5.68153 | 34999 ft | 446 kts | 204° |
| 2026-05-04 12:24 | 44.84981 | -5.71714 | 34998 ft | 446 kts | 204° |
| 2026-05-04 12:25 | 44.79317 | -5.75268 | 35007 ft | 446 kts | 204° |
| 2026-05-04 12:25 | 44.73656 | -5.78814 | 35002 ft | 446 kts | 204° |
| 2026-05-04 12:26 | 44.67984 | -5.82358 | 35000 ft | 446 kts | 204° |
| 2026-05-04 12:26 | 44.62677 | -5.86796 | 35016 ft | 444 kts | 217° |
| 2026-05-04 12:27 | 44.57731 | -5.92014 | 35006 ft | 445 kts | 217° |
| 2026-05-04 12:27 | 44.52790 | -5.97234 | 35003 ft | 445 kts | 217° |
| 2026-05-04 12:28 | 44.47854 | -6.02384 | 35000 ft | 445 kts | 217° |
| 2026-05-04 12:28 | 44.42865 | -6.07546 | 35001 ft | 445 kts | 217° |
| 2026-05-04 12:29 | 44.37878 | -6.12687 | 35000 ft | 446 kts | 217° |
| 2026-05-04 12:29 | 44.32887 | -6.17820 | 34998 ft | 446 kts | 217° |
| 2026-05-04 12:30 | 44.27888 | -6.22952 | 35004 ft | 446 kts | 216° |
| 2026-05-04 12:30 | 44.22887 | -6.28076 | 34997 ft | 446 kts | 216° |
| 2026-05-04 12:31 | 44.17885 | -6.33189 | 35002 ft | 446 kts | 216° |
| 2026-05-04 12:31 | 44.12885 | -6.38290 | 34998 ft | 446 kts | 216° |
| 2026-05-04 12:32 | 44.05375 | -6.45931 | 35005 ft | 446 kts | 216° |
| 2026-05-04 12:33 | 44.00369 | -6.51010 | 34997 ft | 445 kts | 216° |
| 2026-05-04 12:33 | 43.95360 | -6.56082 | 34997 ft | 445 kts | 216° |
| 2026-05-04 12:34 | 43.90353 | -6.61140 | 35002 ft | 445 kts | 216° |
| 2026-05-04 12:34 | 43.85375 | -6.66160 | 34997 ft | 445 kts | 216° |
| 2026-05-04 12:35 | 43.80366 | -6.71199 | 35002 ft | 445 kts | 216° |
| 2026-05-04 12:35 | 43.75351 | -6.76233 | 35002 ft | 445 kts | 216° |
| 2026-05-04 12:36 | 43.70333 | -6.81260 | 34997 ft | 445 kts | 216° |
| 2026-05-04 12:36 | 43.65322 | -6.86270 | 35007 ft | 445 kts | 216° |
| 2026-05-04 12:37 | 43.60305 | -6.91275 | 35004 ft | 445 kts | 216° |
| 2026-05-04 12:37 | 43.55284 | -6.96273 | 35000 ft | 445 kts | 216° |
| 2026-05-04 12:38 | 43.50262 | -7.01263 | 34994 ft | 445 kts | 216° |
| 2026-05-04 12:38 | 43.45234 | -7.06246 | 35002 ft | 446 kts | 216° |
| 2026-05-04 12:39 | 43.40194 | -7.11233 | 35005 ft | 446 kts | 216° |
| 2026-05-04 12:39 | 43.35149 | -7.16213 | 35001 ft | 447 kts | 216° |
| 2026-05-04 12:40 | 43.30100 | -7.21188 | 35006 ft | 447 kts | 216° |
| 2026-05-04 12:40 | 43.25036 | -7.26165 | 35010 ft | 448 kts | 216° |
| 2026-05-04 12:41 | 43.19965 | -7.31140 | 35003 ft | 448 kts | 216° |
| 2026-05-04 12:41 | 43.14881 | -7.36117 | 35003 ft | 449 kts | 216° |
| 2026-05-04 12:42 | 43.09790 | -7.41091 | 35003 ft | 450 kts | 216° |
| 2026-05-04 12:42 | 43.04693 | -7.46060 | 35008 ft | 450 kts | 216° |
| 2026-05-04 12:43 | 42.99591 | -7.51024 | 35008 ft | 450 kts | 216° |
| 2026-05-04 12:43 | 42.94518 | -7.55949 | 34995 ft | 450 kts | 216° |
| 2026-05-04 12:44 | 42.89381 | -7.60926 | 35002 ft | 450 kts | 216° |
| 2026-05-04 12:44 | 42.84307 | -7.65832 | 35000 ft | 450 kts | 216° |
| 2026-05-04 12:45 | 42.79199 | -7.70760 | 35003 ft | 449 kts | 216° |
| 2026-05-04 12:45 | 42.74101 | -7.75669 | 35004 ft | 449 kts | 215° |
| 2026-05-04 12:46 | 42.68998 | -7.80572 | 35003 ft | 449 kts | 215° |
| 2026-05-04 12:46 | 42.63900 | -7.85461 | 35004 ft | 448 kts | 215° |
| 2026-05-04 12:47 | 42.58801 | -7.90340 | 35000 ft | 448 kts | 215° |
| 2026-05-04 12:47 | 42.53696 | -7.95216 | 35007 ft | 448 kts | 215° |
| 2026-05-04 12:48 | 42.48596 | -8.00076 | 35002 ft | 449 kts | 215° |
| 2026-05-04 12:48 | 42.43483 | -8.04939 | 34997 ft | 449 kts | 215° |
| 2026-05-04 12:49 | 42.38370 | -8.09793 | 34996 ft | 449 kts | 215° |
| 2026-05-04 12:49 | 42.33258 | -8.14635 | 35000 ft | 448 kts | 215° |
| 2026-05-04 12:50 | 42.28150 | -8.19464 | 34992 ft | 448 kts | 215° |
| 2026-05-04 12:50 | 42.23050 | -8.24276 | 34999 ft | 448 kts | 215° |
| 2026-05-04 12:51 | 42.17939 | -8.29089 | 35006 ft | 447 kts | 215° |
| 2026-05-04 12:51 | 42.12870 | -8.33853 | 34999 ft | 447 kts | 215° |
| 2026-05-04 12:52 | 42.07767 | -8.38638 | 35015 ft | 446 kts | 215° |
| 2026-05-04 12:52 | 42.02670 | -8.43410 | 34986 ft | 446 kts | 215° |
| 2026-05-04 12:53 | 41.97572 | -8.48172 | 35004 ft | 446 kts | 215° |
| 2026-05-04 12:53 | 41.92472 | -8.52928 | 35003 ft | 446 kts | 215° |
| 2026-05-04 12:54 | 41.87366 | -8.57680 | 35005 ft | 447 kts | 215° |
| 2026-05-04 12:54 | 41.82360 | -8.62631 | 35000 ft | 447 kts | 219° |
| 2026-05-04 12:55 | 41.77557 | -8.67932 | 35002 ft | 447 kts | 220° |
| 2026-05-04 12:55 | 41.72809 | -8.73227 | 35002 ft | 447 kts | 220° |
| 2026-05-04 12:56 | 41.68010 | -8.78524 | 35003 ft | 447 kts | 219° |
| 2026-05-04 12:56 | 41.63207 | -8.83781 | 35007 ft | 446 kts | 219° |
| 2026-05-04 12:57 | 41.58396 | -8.89025 | 34995 ft | 446 kts | 219° |
| 2026-05-04 12:57 | 41.53592 | -8.94249 | 35002 ft | 445 kts | 219° |
| 2026-05-04 12:58 | 41.48799 | -8.99453 | 35000 ft | 444 kts | 219° |
| 2026-05-04 12:58 | 41.44007 | -9.04646 | 34997 ft | 444 kts | 219° |
| 2026-05-04 12:59 | 41.39216 | -9.09828 | 35002 ft | 443 kts | 219° |
| 2026-05-04 12:59 | 41.34458 | -9.14964 | 35007 ft | 443 kts | 219° |
| 2026-05-04 13:00 | 41.29670 | -9.20122 | 35002 ft | 443 kts | 219° |
| 2026-05-04 13:00 | 41.24876 | -9.25278 | 35001 ft | 443 kts | 219° |
| 2026-05-04 13:01 | 41.20078 | -9.30427 | 35002 ft | 443 kts | 219° |
| 2026-05-04 13:01 | 41.15277 | -9.35569 | 35004 ft | 444 kts | 219° |
| 2026-05-04 13:02 | 41.10468 | -9.40710 | 34998 ft | 444 kts | 219° |
| 2026-05-04 13:02 | 41.05628 | -9.45807 | 34998 ft | 444 kts | 217° |
| 2026-05-04 13:03 | 41.00709 | -9.50688 | 35003 ft | 445 kts | 217° |
| 2026-05-04 13:03 | 40.95737 | -9.55568 | 35001 ft | 445 kts | 217° |
| 2026-05-04 13:04 | 40.90772 | -9.60466 | 35003 ft | 445 kts | 217° |
| 2026-05-04 13:04 | 40.85811 | -9.65375 | 34998 ft | 446 kts | 217° |
| 2026-05-04 13:05 | 40.80850 | -9.70283 | 34998 ft | 446 kts | 217° |
| 2026-05-04 13:05 | 40.75887 | -9.75183 | 35007 ft | 446 kts | 217° |
| 2026-05-04 13:06 | 40.70920 | -9.80078 | 34997 ft | 445 kts | 217° |
| 2026-05-04 13:06 | 40.65955 | -9.84960 | 35007 ft | 445 kts | 217° |
| 2026-05-04 13:07 | 40.60993 | -9.89831 | 34997 ft | 445 kts | 217° |
| 2026-05-04 13:07 | 40.56862 | -9.93875 | 34998 ft | 445 kts | 217° |
| 2026-05-04 13:08 | 40.51089 | -9.99516 | 35000 ft | 445 kts | 217° |
| 2026-05-04 13:08 | 40.46127 | -10.04357 | 35002 ft | 444 kts | 217° |
| 2026-05-04 13:09 | 40.41968 | -10.08409 | 35000 ft | 444 kts | 217° |
| 2026-05-04 13:09 | 40.36199 | -10.14020 | 35003 ft | 444 kts | 217° |
| 2026-05-04 13:10 | 40.32070 | -10.18028 | 35007 ft | 444 kts | 217° |
| 2026-05-04 13:10 | 40.27108 | -10.22836 | 35003 ft | 444 kts | 217° |
| 2026-05-04 13:11 | 40.22142 | -10.27640 | 35006 ft | 444 kts | 217° |
| 2026-05-04 13:11 | 40.17171 | -10.32438 | 35002 ft | 444 kts | 217° |
| 2026-05-04 13:12 | 40.12193 | -10.37236 | 35002 ft | 444 kts | 217° |
| 2026-05-04 13:12 | 40.07222 | -10.42016 | 34998 ft | 444 kts | 217° |
| 2026-05-04 13:13 | 40.02236 | -10.46804 | 35004 ft | 444 kts | 216° |
| 2026-05-04 13:13 | 39.97249 | -10.51582 | 35007 ft | 444 kts | 216° |
| 2026-05-04 13:14 | 39.92301 | -10.56315 | 35001 ft | 444 kts | 216° |
| 2026-05-04 13:14 | 39.87313 | -10.61078 | 35006 ft | 444 kts | 216° |
| 2026-05-04 13:15 | 39.82323 | -10.65833 | 35004 ft | 444 kts | 216° |
| 2026-05-04 13:15 | 39.77329 | -10.70583 | 35000 ft | 444 kts | 216° |
| 2026-05-04 13:16 | 39.72337 | -10.75323 | 35004 ft | 444 kts | 216° |
| 2026-05-04 13:16 | 39.67342 | -10.80058 | 34998 ft | 444 kts | 216° |
| 2026-05-04 13:17 | 39.62347 | -10.84783 | 34998 ft | 444 kts | 216° |
| 2026-05-04 13:17 | 39.57346 | -10.89505 | 35003 ft | 444 kts | 216° |
| 2026-05-04 13:18 | 39.52347 | -10.94217 | 35004 ft | 444 kts | 216° |
| 2026-05-04 13:18 | 39.47347 | -10.98922 | 35000 ft | 444 kts | 216° |
| 2026-05-04 13:19 | 39.42375 | -11.03591 | 35002 ft | 444 kts | 216° |
| 2026-05-04 13:19 | 39.37367 | -11.08285 | 34998 ft | 444 kts | 216° |
| 2026-05-04 13:20 | 39.32361 | -11.12970 | 34998 ft | 444 kts | 216° |
| 2026-05-04 13:20 | 39.27354 | -11.17646 | 35000 ft | 444 kts | 216° |
| 2026-05-04 13:21 | 39.22348 | -11.22314 | 35001 ft | 444 kts | 216° |
| 2026-05-04 13:21 | 39.17340 | -11.26975 | 34998 ft | 444 kts | 216° |
| 2026-05-04 13:22 | 39.12328 | -11.31632 | 34998 ft | 444 kts | 216° |
| 2026-05-04 13:22 | 39.07320 | -11.36276 | 35009 ft | 444 kts | 216° |
| 2026-05-04 13:23 | 39.02336 | -11.40890 | 34998 ft | 444 kts | 216° |
| 2026-05-04 13:23 | 38.97315 | -11.45530 | 34998 ft | 444 kts | 216° |
| 2026-05-04 13:24 | 38.92296 | -11.50160 | 34998 ft | 444 kts | 216° |
| 2026-05-04 13:24 | 38.87279 | -11.54780 | 35002 ft | 444 kts | 216° |
| 2026-05-04 13:25 | 38.79747 | -11.61700 | 35001 ft | 444 kts | 216° |
| 2026-05-04 13:25 | 38.74725 | -11.66303 | 35006 ft | 444 kts | 216° |
| 2026-05-04 13:26 | 38.69694 | -11.70907 | 35008 ft | 444 kts | 216° |
| 2026-05-04 13:26 | 38.64658 | -11.75507 | 34997 ft | 444 kts | 216° |
| 2026-05-04 13:27 | 38.59633 | -11.80090 | 35003 ft | 444 kts | 216° |
| 2026-05-04 13:27 | 38.54603 | -11.84668 | 35005 ft | 444 kts | 216° |
| 2026-05-04 13:28 | 38.49604 | -11.89211 | 35006 ft | 444 kts | 216° |
| 2026-05-04 13:28 | 38.44567 | -11.93780 | 34998 ft | 444 kts | 216° |
| 2026-05-04 13:29 | 38.39529 | -11.98342 | 34998 ft | 444 kts | 216° |
| 2026-05-04 13:29 | 38.34489 | -12.02898 | 35000 ft | 444 kts | 216° |
| 2026-05-04 13:30 | 38.29453 | -12.07443 | 34997 ft | 444 kts | 216° |
| 2026-05-04 13:30 | 38.24410 | -12.11985 | 34998 ft | 444 kts | 216° |
| 2026-05-04 13:31 | 38.19398 | -12.16492 | 35003 ft | 444 kts | 215° |
| 2026-05-04 13:31 | 38.14349 | -12.21025 | 34997 ft | 444 kts | 215° |
| 2026-05-04 13:32 | 38.09305 | -12.25545 | 35002 ft | 444 kts | 215° |
| 2026-05-04 13:32 | 38.04255 | -12.30063 | 35003 ft | 444 kts | 215° |
| 2026-05-04 13:33 | 37.99233 | -12.34548 | 35002 ft | 444 kts | 215° |
| 2026-05-04 13:33 | 37.94183 | -12.39051 | 35002 ft | 444 kts | 215° |
| 2026-05-04 13:34 | 37.89133 | -12.43545 | 35006 ft | 443 kts | 215° |
| 2026-05-04 13:34 | 37.84081 | -12.48034 | 35009 ft | 443 kts | 215° |
| 2026-05-04 13:35 | 37.76559 | -12.54688 | 35246 ft | 426 kts | 221° |
| 2026-05-04 13:35 | 37.74162 | -12.56801 | 35173 ft | 415 kts | 221° |
| 2026-05-04 13:36 | 37.71830 | -12.58862 | 35179 ft | 412 kts | 221° |
| 2026-05-04 13:36 | 37.67070 | -12.63082 | 35191 ft | 419 kts | 221° |
| 2026-05-04 13:37 | 37.62253 | -12.67345 | 35179 ft | 424 kts | 221° |
| 2026-05-04 13:37 | 37.57438 | -12.71585 | 35166 ft | 425 kts | 221° |
| 2026-05-04 13:38 | 37.52575 | -12.75858 | 35173 ft | 425 kts | 221° |
| 2026-05-04 13:38 | 37.47723 | -12.80114 | 35156 ft | 425 kts | 221° |
| 2026-05-04 13:39 | 37.42871 | -12.84364 | 35170 ft | 423 kts | 221° |
| 2026-05-04 13:39 | 37.38043 | -12.88588 | 35170 ft | 422 kts | 220° |
| 2026-05-04 13:40 | 37.33269 | -12.92758 | 35172 ft | 420 kts | 220° |
| 2026-05-04 13:40 | 37.28476 | -12.96938 | 35172 ft | 418 kts | 220° |
| 2026-05-04 13:41 | 37.23699 | -13.01097 | 35173 ft | 417 kts | 220° |
| 2026-05-04 13:41 | 37.18937 | -13.05238 | 35173 ft | 416 kts | 220° |
| 2026-05-04 13:42 | 37.11799 | -13.11432 | 35176 ft | 416 kts | 220° |
| 2026-05-04 13:42 | 37.07044 | -13.15551 | 35177 ft | 416 kts | 220° |
| 2026-05-04 13:43 | 37.02278 | -13.19672 | 35176 ft | 416 kts | 220° |
| 2026-05-04 13:43 | 36.97505 | -13.23793 | 35178 ft | 417 kts | 220° |
| 2026-05-04 13:44 | 36.92725 | -13.27914 | 35178 ft | 418 kts | 219° |
| 2026-05-04 13:44 | 36.87934 | -13.32037 | 35175 ft | 418 kts | 219° |
| 2026-05-04 13:45 | 36.83131 | -13.36164 | 35174 ft | 419 kts | 219° |
| 2026-05-04 13:45 | 36.78324 | -13.40288 | 35179 ft | 419 kts | 219° |
| 2026-05-04 13:46 | 36.73517 | -13.44406 | 35177 ft | 419 kts | 219° |